sensor_id;sensor_type;location;lat;lon;timestamp;P1;durP1;ratioP1;P2;durP2;ratioP2
31660;SDS011;18267;52.234;7.444;2023-03-20T00:00:45;32.60;;;12.52;;
31660;SDS011;18267;52.234;7.444;2023-03-20T00:03:12;36.00;;;13.25;;
31660;SDS011;18267;52.234;7.444;2023-03-20T00:05:38;31.02;;;12.23;;
31660;SDS011;18267;52.234;7.444;2023-03-20T00:08:04;31.33;;;12.65;;
31660;SDS011;18267;52.234;7.444;2023-03-20T00:10:33;31.50;;;13.10;;
31660;SDS011;18267;52.234;7.444;2023-03-20T00:13:02;35.92;;;13.10;;
31660;SDS011;18267;52.234;7.444;2023-03-20T00:15:30;42.42;;;15.02;;
31660;SDS011;18267;52.234;7.444;2023-03-20T00:17:59;37.55;;;14.00;;
31660;SDS011;18267;52.234;7.444;2023-03-20T00:20:24;35.42;;;14.27;;
31660;SDS011;18267;52.234;7.444;2023-03-20T00:22:51;32.92;;;14.52;;
31660;SDS011;18267;52.234;7.444;2023-03-20T00:25:18;34.03;;;14.52;;
31660;SDS011;18267;52.234;7.444;2023-03-20T00:27:46;36.13;;;14.05;;
31660;SDS011;18267;52.234;7.444;2023-03-20T00:32:49;36.25;;;14.73;;
31660;SDS011;18267;52.234;7.444;2023-03-20T00:35:22;37.25;;;15.52;;
31660;SDS011;18267;52.234;7.444;2023-03-20T00:37:50;35.67;;;14.48;;
31660;SDS011;18267;52.234;7.444;2023-03-20T00:40:18;42.13;;;14.43;;
31660;SDS011;18267;52.234;7.444;2023-03-20T00:42:45;37.35;;;16.05;;
31660;SDS011;18267;52.234;7.444;2023-03-20T00:45:16;34.60;;;13.52;;
31660;SDS011;18267;52.234;7.444;2023-03-20T00:47:45;33.92;;;13.27;;
31660;SDS011;18267;52.234;7.444;2023-03-20T00:50:16;41.10;;;14.15;;
31660;SDS011;18267;52.234;7.444;2023-03-20T00:52:48;37.28;;;15.20;;
31660;SDS011;18267;52.234;7.444;2023-03-20T00:55:15;37.22;;;13.20;;
31660;SDS011;18267;52.234;7.444;2023-03-20T00:57:56;38.85;;;14.32;;
31660;SDS011;18267;52.234;7.444;2023-03-20T01:03:20;35.65;;;14.55;;
31660;SDS011;18267;52.234;7.444;2023-03-20T01:05:49;41.28;;;15.00;;
31660;SDS011;18267;52.234;7.444;2023-03-20T01:10:42;38.35;;;14.98;;
31660;SDS011;18267;52.234;7.444;2023-03-20T01:13:16;44.35;;;16.42;;
31660;SDS011;18267;52.234;7.444;2023-03-20T01:15:49;48.88;;;17.27;;
31660;SDS011;18267;52.234;7.444;2023-03-20T01:18:16;44.10;;;16.48;;
31660;SDS011;18267;52.234;7.444;2023-03-20T01:20:43;47.72;;;18.80;;
31660;SDS011;18267;52.234;7.444;2023-03-20T01:23:09;48.25;;;17.63;;
31660;SDS011;18267;52.234;7.444;2023-03-20T01:25:38;42.53;;;18.35;;
31660;SDS011;18267;52.234;7.444;2023-03-20T01:28:22;42.97;;;18.48;;
31660;SDS011;18267;52.234;7.444;2023-03-20T01:30:48;44.90;;;19.50;;
31660;SDS011;18267;52.234;7.444;2023-03-20T01:33:21;53.25;;;19.00;;
31660;SDS011;18267;52.234;7.444;2023-03-20T01:35:48;51.58;;;19.58;;
31660;SDS011;18267;52.234;7.444;2023-03-20T01:38:17;56.25;;;22.13;;
31660;SDS011;18267;52.234;7.444;2023-03-20T01:43:34;53.47;;;19.63;;
31660;SDS011;18267;52.234;7.444;2023-03-20T01:46:00;57.88;;;22.60;;
31660;SDS011;18267;52.234;7.444;2023-03-20T01:51:17;44.70;;;20.30;;
31660;SDS011;18267;52.234;7.444;2023-03-20T01:53:48;54.28;;;21.92;;
31660;SDS011;18267;52.234;7.444;2023-03-20T01:56:17;53.20;;;21.58;;
31660;SDS011;18267;52.234;7.444;2023-03-20T02:01:39;42.50;;;19.25;;
31660;SDS011;18267;52.234;7.444;2023-03-20T02:04:06;52.47;;;20.02;;
31660;SDS011;18267;52.234;7.444;2023-03-20T02:06:33;49.08;;;20.77;;
31660;SDS011;18267;52.234;7.444;2023-03-20T02:09:01;47.05;;;20.08;;
31660;SDS011;18267;52.234;7.444;2023-03-20T02:11:28;46.05;;;19.13;;
31660;SDS011;18267;52.234;7.444;2023-03-20T02:13:54;48.58;;;19.73;;
31660;SDS011;18267;52.234;7.444;2023-03-20T02:16:23;44.20;;;19.00;;
31660;SDS011;18267;52.234;7.444;2023-03-20T02:18:50;45.75;;;18.58;;
31660;SDS011;18267;52.234;7.444;2023-03-20T02:35:45;45.38;;;17.60;;
31660;SDS011;18267;52.234;7.444;2023-03-20T02:39:23;46.10;;;17.30;;
31660;SDS011;18267;52.234;7.444;2023-03-20T02:41:31;43.85;;;17.20;;
31660;SDS011;18267;52.234;7.444;2023-03-20T02:44:20;36.33;;;14.95;;
31660;SDS011;18267;52.234;7.444;2023-03-20T02:49:44;39.35;;;16.58;;
31660;SDS011;18267;52.234;7.444;2023-03-20T02:55:13;39.15;;;15.55;;
31660;SDS011;18267;52.234;7.444;2023-03-20T03:00:56;42.05;;;14.90;;
31660;SDS011;18267;52.234;7.444;2023-03-20T03:06:00;25.27;;;10.93;;
31660;SDS011;18267;52.234;7.444;2023-03-20T03:08:32;22.45;;;9.82;;
31660;SDS011;18267;52.234;7.444;2023-03-20T03:11:04;18.52;;;7.68;;
31660;SDS011;18267;52.234;7.444;2023-03-20T03:13:32;20.40;;;8.15;;
31660;SDS011;18267;52.234;7.444;2023-03-20T03:16:14;18.42;;;7.75;;
31660;SDS011;18267;52.234;7.444;2023-03-20T03:18:43;20.55;;;8.00;;
31660;SDS011;18267;52.234;7.444;2023-03-20T03:21:10;18.60;;;8.55;;
31660;SDS011;18267;52.234;7.444;2023-03-20T03:23:47;14.93;;;7.47;;
31660;SDS011;18267;52.234;7.444;2023-03-20T03:26:46;14.98;;;6.85;;
31660;SDS011;18267;52.234;7.444;2023-03-20T03:29:09;14.07;;;6.85;;
31660;SDS011;18267;52.234;7.444;2023-03-20T03:31:39;16.85;;;7.68;;
31660;SDS011;18267;52.234;7.444;2023-03-20T03:34:07;21.48;;;8.57;;
31660;SDS011;18267;52.234;7.444;2023-03-20T03:39:26;14.88;;;7.20;;
31660;SDS011;18267;52.234;7.444;2023-03-20T03:42:20;20.58;;;8.80;;
31660;SDS011;18267;52.234;7.444;2023-03-20T03:47:56;25.92;;;8.90;;
31660;SDS011;18267;52.234;7.444;2023-03-20T03:50:36;23.67;;;8.82;;
31660;SDS011;18267;52.234;7.444;2023-03-20T03:53:05;21.33;;;9.20;;
31660;SDS011;18267;52.234;7.444;2023-03-20T03:55:37;24.95;;;9.07;;
31660;SDS011;18267;52.234;7.444;2023-03-20T03:58:15;18.75;;;9.35;;
31660;SDS011;18267;52.234;7.444;2023-03-20T04:00:48;20.08;;;9.23;;
31660;SDS011;18267;52.234;7.444;2023-03-20T04:03:16;21.85;;;8.90;;
31660;SDS011;18267;52.234;7.444;2023-03-20T04:05:45;20.00;;;9.30;;
31660;SDS011;18267;52.234;7.444;2023-03-20T04:08:13;18.42;;;9.45;;
31660;SDS011;18267;52.234;7.444;2023-03-20T04:10:40;23.20;;;9.27;;
31660;SDS011;18267;52.234;7.444;2023-03-20T04:13:05;22.90;;;9.27;;
31660;SDS011;18267;52.234;7.444;2023-03-20T04:15:31;24.08;;;9.63;;
31660;SDS011;18267;52.234;7.444;2023-03-20T04:17:57;21.15;;;8.32;;
31660;SDS011;18267;52.234;7.444;2023-03-20T04:20:22;17.55;;;8.45;;
31660;SDS011;18267;52.234;7.444;2023-03-20T04:22:48;19.83;;;7.82;;
31660;SDS011;18267;52.234;7.444;2023-03-20T04:25:15;20.20;;;8.13;;
31660;SDS011;18267;52.234;7.444;2023-03-20T04:27:43;18.27;;;8.50;;
31660;SDS011;18267;52.234;7.444;2023-03-20T04:30:08;18.60;;;7.78;;
31660;SDS011;18267;52.234;7.444;2023-03-20T04:32:36;17.73;;;7.68;;
31660;SDS011;18267;52.234;7.444;2023-03-20T04:35:02;14.10;;;6.88;;
31660;SDS011;18267;52.234;7.444;2023-03-20T04:37:28;16.92;;;7.47;;
31660;SDS011;18267;52.234;7.444;2023-03-20T04:39:54;20.30;;;7.72;;
31660;SDS011;18267;52.234;7.444;2023-03-20T04:42:20;17.02;;;7.95;;
31660;SDS011;18267;52.234;7.444;2023-03-20T04:44:45;13.63;;;6.90;;
31660;SDS011;18267;52.234;7.444;2023-03-20T04:47:11;17.65;;;7.88;;
31660;SDS011;18267;52.234;7.444;2023-03-20T04:49:36;18.58;;;7.75;;
31660;SDS011;18267;52.234;7.444;2023-03-20T04:52:03;19.80;;;7.15;;
31660;SDS011;18267;52.234;7.444;2023-03-20T04:54:29;19.35;;;8.05;;
31660;SDS011;18267;52.234;7.444;2023-03-20T04:56:55;17.00;;;7.32;;
31660;SDS011;18267;52.234;7.444;2023-03-20T04:59:22;15.77;;;6.75;;
31660;SDS011;18267;52.234;7.444;2023-03-20T05:01:48;15.93;;;7.82;;
31660;SDS011;18267;52.234;7.444;2023-03-20T05:04:13;20.42;;;8.75;;
31660;SDS011;18267;52.234;7.444;2023-03-20T05:06:39;18.83;;;7.65;;
31660;SDS011;18267;52.234;7.444;2023-03-20T05:09:07;26.17;;;8.13;;
31660;SDS011;18267;52.234;7.444;2023-03-20T05:11:34;23.38;;;9.10;;
31660;SDS011;18267;52.234;7.444;2023-03-20T05:13:59;20.58;;;8.45;;
31660;SDS011;18267;52.234;7.444;2023-03-20T05:16:25;22.77;;;9.23;;
31660;SDS011;18267;52.234;7.444;2023-03-20T05:18:51;18.25;;;8.90;;
31660;SDS011;18267;52.234;7.444;2023-03-20T05:21:16;23.02;;;9.77;;
31660;SDS011;18267;52.234;7.444;2023-03-20T05:23:42;20.77;;;9.43;;
31660;SDS011;18267;52.234;7.444;2023-03-20T05:26:07;20.60;;;9.50;;
31660;SDS011;18267;52.234;7.444;2023-03-20T05:28:33;23.38;;;9.38;;
31660;SDS011;18267;52.234;7.444;2023-03-20T05:30:58;23.45;;;10.20;;
31660;SDS011;18267;52.234;7.444;2023-03-20T05:33:24;17.85;;;8.45;;
31660;SDS011;18267;52.234;7.444;2023-03-20T05:35:50;21.10;;;10.52;;
31660;SDS011;18267;52.234;7.444;2023-03-20T05:38:15;22.30;;;9.15;;
31660;SDS011;18267;52.234;7.444;2023-03-20T05:40:41;26.27;;;9.93;;
31660;SDS011;18267;52.234;7.444;2023-03-20T05:43:07;26.98;;;9.50;;
31660;SDS011;18267;52.234;7.444;2023-03-20T05:45:32;23.13;;;9.60;;
31660;SDS011;18267;52.234;7.444;2023-03-20T05:47:59;27.25;;;10.40;;
31660;SDS011;18267;52.234;7.444;2023-03-20T05:50:24;18.83;;;8.55;;
31660;SDS011;18267;52.234;7.444;2023-03-20T05:52:50;22.08;;;9.43;;
31660;SDS011;18267;52.234;7.444;2023-03-20T05:55:16;17.42;;;9.32;;
31660;SDS011;18267;52.234;7.444;2023-03-20T05:57:41;23.85;;;9.85;;
31660;SDS011;18267;52.234;7.444;2023-03-20T06:00:07;23.98;;;9.25;;
31660;SDS011;18267;52.234;7.444;2023-03-20T06:02:34;14.95;;;8.07;;
31660;SDS011;18267;52.234;7.444;2023-03-20T06:05:01;17.25;;;8.82;;
31660;SDS011;18267;52.234;7.444;2023-03-20T06:07:26;21.42;;;8.40;;
31660;SDS011;18267;52.234;7.444;2023-03-20T06:09:52;16.98;;;8.27;;
31660;SDS011;18267;52.234;7.444;2023-03-20T06:12:18;14.82;;;7.90;;
31660;SDS011;18267;52.234;7.444;2023-03-20T06:14:43;18.40;;;8.55;;
31660;SDS011;18267;52.234;7.444;2023-03-20T06:17:09;14.23;;;7.18;;
31660;SDS011;18267;52.234;7.444;2023-03-20T06:19:34;17.02;;;7.55;;
31660;SDS011;18267;52.234;7.444;2023-03-20T06:22:00;13.95;;;6.63;;
31660;SDS011;18267;52.234;7.444;2023-03-20T06:24:26;14.80;;;7.47;;
31660;SDS011;18267;52.234;7.444;2023-03-20T06:26:52;16.33;;;6.72;;
31660;SDS011;18267;52.234;7.444;2023-03-20T06:29:17;17.25;;;7.07;;
31660;SDS011;18267;52.234;7.444;2023-03-20T06:31:43;15.52;;;6.80;;
31660;SDS011;18267;52.234;7.444;2023-03-20T06:34:09;15.60;;;7.82;;
31660;SDS011;18267;52.234;7.444;2023-03-20T06:36:35;22.25;;;9.18;;
31660;SDS011;18267;52.234;7.444;2023-03-20T06:39:01;18.55;;;8.40;;
31660;SDS011;18267;52.234;7.444;2023-03-20T06:41:27;16.27;;;8.52;;
31660;SDS011;18267;52.234;7.444;2023-03-20T06:43:53;22.17;;;9.18;;
31660;SDS011;18267;52.234;7.444;2023-03-20T06:46:21;16.75;;;8.07;;
31660;SDS011;18267;52.234;7.444;2023-03-20T06:48:47;18.73;;;9.02;;
31660;SDS011;18267;52.234;7.444;2023-03-20T06:51:13;16.00;;;7.47;;
31660;SDS011;18267;52.234;7.444;2023-03-20T06:53:39;16.88;;;7.70;;
31660;SDS011;18267;52.234;7.444;2023-03-20T06:56:08;17.63;;;7.50;;
31660;SDS011;18267;52.234;7.444;2023-03-20T06:58:36;14.82;;;6.32;;
31660;SDS011;18267;52.234;7.444;2023-03-20T07:01:07;12.05;;;6.03;;
31660;SDS011;18267;52.234;7.444;2023-03-20T07:03:37;18.43;;;6.97;;
31660;SDS011;18267;52.234;7.444;2023-03-20T07:06:03;15.70;;;6.30;;
31660;SDS011;18267;52.234;7.444;2023-03-20T07:08:28;16.85;;;7.57;;
31660;SDS011;18267;52.234;7.444;2023-03-20T07:10:54;13.43;;;5.95;;
31660;SDS011;18267;52.234;7.444;2023-03-20T07:13:20;16.88;;;6.38;;
31660;SDS011;18267;52.234;7.444;2023-03-20T07:15:46;15.55;;;6.30;;
31660;SDS011;18267;52.234;7.444;2023-03-20T07:18:11;13.98;;;6.47;;
31660;SDS011;18267;52.234;7.444;2023-03-20T07:20:37;12.85;;;5.47;;
31660;SDS011;18267;52.234;7.444;2023-03-20T07:23:03;9.80;;;5.10;;
31660;SDS011;18267;52.234;7.444;2023-03-20T07:25:28;8.38;;;4.95;;
31660;SDS011;18267;52.234;7.444;2023-03-20T07:27:54;10.55;;;4.50;;
31660;SDS011;18267;52.234;7.444;2023-03-20T07:30:20;19.13;;;5.90;;
31660;SDS011;18267;52.234;7.444;2023-03-20T07:32:45;9.10;;;5.43;;
31660;SDS011;18267;52.234;7.444;2023-03-20T07:35:12;13.18;;;5.28;;
31660;SDS011;18267;52.234;7.444;2023-03-20T07:37:37;13.23;;;4.72;;
31660;SDS011;18267;52.234;7.444;2023-03-20T07:40:03;13.15;;;5.00;;
31660;SDS011;18267;52.234;7.444;2023-03-20T07:42:29;11.00;;;4.40;;
31660;SDS011;18267;52.234;7.444;2023-03-20T07:44:55;13.10;;;4.97;;
31660;SDS011;18267;52.234;7.444;2023-03-20T07:47:20;13.32;;;5.70;;
31660;SDS011;18267;52.234;7.444;2023-03-20T07:49:46;9.50;;;4.47;;
31660;SDS011;18267;52.234;7.444;2023-03-20T07:52:12;15.07;;;5.45;;
31660;SDS011;18267;52.234;7.444;2023-03-20T07:54:37;11.50;;;5.15;;
31660;SDS011;18267;52.234;7.444;2023-03-20T07:57:03;10.02;;;4.97;;
31660;SDS011;18267;52.234;7.444;2023-03-20T07:59:29;7.72;;;4.32;;
31660;SDS011;18267;52.234;7.444;2023-03-20T08:01:55;14.05;;;5.30;;
31660;SDS011;18267;52.234;7.444;2023-03-20T08:04:21;12.85;;;5.05;;
31660;SDS011;18267;52.234;7.444;2023-03-20T08:06:47;14.95;;;4.72;;
31660;SDS011;18267;52.234;7.444;2023-03-20T08:09:13;14.75;;;5.03;;
31660;SDS011;18267;52.234;7.444;2023-03-20T08:11:39;8.80;;;5.32;;
31660;SDS011;18267;52.234;7.444;2023-03-20T08:14:04;10.93;;;5.65;;
31660;SDS011;18267;52.234;7.444;2023-03-20T08:16:30;26.00;;;5.72;;
31660;SDS011;18267;52.234;7.444;2023-03-20T08:18:55;10.60;;;5.28;;
31660;SDS011;18267;52.234;7.444;2023-03-20T08:21:25;15.13;;;5.35;;
31660;SDS011;18267;52.234;7.444;2023-03-20T08:23:52;17.75;;;5.25;;
31660;SDS011;18267;52.234;7.444;2023-03-20T08:26:18;13.98;;;6.60;;
31660;SDS011;18267;52.234;7.444;2023-03-20T08:28:44;13.90;;;5.25;;
31660;SDS011;18267;52.234;7.444;2023-03-20T08:31:09;13.80;;;5.45;;
31660;SDS011;18267;52.234;7.444;2023-03-20T08:33:35;20.73;;;5.75;;
31660;SDS011;18267;52.234;7.444;2023-03-20T08:36:00;16.45;;;6.00;;
31660;SDS011;18267;52.234;7.444;2023-03-20T08:38:26;12.40;;;5.50;;
31660;SDS011;18267;52.234;7.444;2023-03-20T08:40:52;13.57;;;4.90;;
31660;SDS011;18267;52.234;7.444;2023-03-20T08:43:19;10.93;;;5.28;;
31660;SDS011;18267;52.234;7.444;2023-03-20T08:45:44;14.98;;;5.03;;
31660;SDS011;18267;52.234;7.444;2023-03-20T08:48:10;12.55;;;5.63;;
31660;SDS011;18267;52.234;7.444;2023-03-20T08:50:36;10.63;;;5.05;;
31660;SDS011;18267;52.234;7.444;2023-03-20T08:53:02;9.60;;;3.80;;
31660;SDS011;18267;52.234;7.444;2023-03-20T08:55:28;12.45;;;4.40;;
31660;SDS011;18267;52.234;7.444;2023-03-20T08:57:53;7.88;;;4.05;;
31660;SDS011;18267;52.234;7.444;2023-03-20T09:00:21;13.60;;;4.75;;
31660;SDS011;18267;52.234;7.444;2023-03-20T09:02:49;11.63;;;4.78;;
31660;SDS011;18267;52.234;7.444;2023-03-20T09:05:16;13.50;;;5.65;;
31660;SDS011;18267;52.234;7.444;2023-03-20T09:07:42;10.27;;;4.22;;
31660;SDS011;18267;52.234;7.444;2023-03-20T09:10:08;12.90;;;4.00;;
31660;SDS011;18267;52.234;7.444;2023-03-20T09:12:39;18.75;;;5.18;;
31660;SDS011;18267;52.234;7.444;2023-03-20T09:15:05;10.35;;;4.30;;
31660;SDS011;18267;52.234;7.444;2023-03-20T09:17:33;9.13;;;4.32;;
31660;SDS011;18267;52.234;7.444;2023-03-20T09:19:58;11.02;;;4.55;;
31660;SDS011;18267;52.234;7.444;2023-03-20T09:22:24;9.13;;;4.15;;
31660;SDS011;18267;52.234;7.444;2023-03-20T09:24:49;10.48;;;4.45;;
31660;SDS011;18267;52.234;7.444;2023-03-20T09:27:15;8.43;;;4.80;;
31660;SDS011;18267;52.234;7.444;2023-03-20T09:29:47;8.95;;;4.63;;
31660;SDS011;18267;52.234;7.444;2023-03-20T09:32:13;10.35;;;4.25;;
31660;SDS011;18267;52.234;7.444;2023-03-20T09:34:39;9.85;;;4.05;;
31660;SDS011;18267;52.234;7.444;2023-03-20T09:37:06;9.13;;;4.28;;
31660;SDS011;18267;52.234;7.444;2023-03-20T09:39:32;8.77;;;4.15;;
31660;SDS011;18267;52.234;7.444;2023-03-20T09:42:17;6.18;;;3.60;;
31660;SDS011;18267;52.234;7.444;2023-03-20T09:45:04;14.48;;;4.40;;
31660;SDS011;18267;52.234;7.444;2023-03-20T09:51:05;6.82;;;3.25;;
31660;SDS011;18267;52.234;7.444;2023-03-20T09:53:46;6.90;;;3.15;;
31660;SDS011;18267;52.234;7.444;2023-03-20T09:56:16;9.00;;;2.80;;
31660;SDS011;18267;52.234;7.444;2023-03-20T09:58:50;10.13;;;2.85;;
31660;SDS011;18267;52.234;7.444;2023-03-20T10:01:25;6.22;;;2.95;;
31660;SDS011;18267;52.234;7.444;2023-03-20T10:03:55;6.70;;;2.80;;
31660;SDS011;18267;52.234;7.444;2023-03-20T10:06:26;13.18;;;2.67;;
31660;SDS011;18267;52.234;7.444;2023-03-20T10:08:52;5.55;;;2.42;;
31660;SDS011;18267;52.234;7.444;2023-03-20T10:11:34;9.27;;;2.42;;
31660;SDS011;18267;52.234;7.444;2023-03-20T10:14:26;5.50;;;2.25;;
31660;SDS011;18267;52.234;7.444;2023-03-20T10:19:57;3.83;;;2.00;;
31660;SDS011;18267;52.234;7.444;2023-03-20T10:22:26;7.85;;;2.38;;
31660;SDS011;18267;52.234;7.444;2023-03-20T10:24:59;8.07;;;2.15;;
31660;SDS011;18267;52.234;7.444;2023-03-20T10:27:39;5.32;;;1.88;;
31660;SDS011;18267;52.234;7.444;2023-03-20T10:38:19;5.60;;;2.28;;
31660;SDS011;18267;52.234;7.444;2023-03-20T10:41:09;8.02;;;1.70;;
31660;SDS011;18267;52.234;7.444;2023-03-20T10:43:40;7.40;;;2.22;;
31660;SDS011;18267;52.234;7.444;2023-03-20T10:46:14;2.47;;;1.48;;
31660;SDS011;18267;52.234;7.444;2023-03-20T10:48:49;4.60;;;1.30;;
31660;SDS011;18267;52.234;7.444;2023-03-20T10:51:38;7.28;;;2.08;;
31660;SDS011;18267;52.234;7.444;2023-03-20T10:54:30;4.20;;;1.83;;
31660;SDS011;18267;52.234;7.444;2023-03-20T10:56:59;4.15;;;1.65;;
31660;SDS011;18267;52.234;7.444;2023-03-20T10:59:29;3.72;;;1.40;;
31660;SDS011;18267;52.234;7.444;2023-03-20T11:02:09;4.13;;;1.70;;
31660;SDS011;18267;52.234;7.444;2023-03-20T11:04:36;3.78;;;1.55;;
31660;SDS011;18267;52.234;7.444;2023-03-20T11:12:32;4.15;;;1.60;;
31660;SDS011;18267;52.234;7.444;2023-03-20T11:15:01;4.07;;;2.20;;
31660;SDS011;18267;52.234;7.444;2023-03-20T11:17:38;3.25;;;1.40;;
31660;SDS011;18267;52.234;7.444;2023-03-20T11:20:03;6.07;;;1.60;;
31660;SDS011;18267;52.234;7.444;2023-03-20T11:22:30;2.38;;;1.27;;
31660;SDS011;18267;52.234;7.444;2023-03-20T11:24:56;4.78;;;1.70;;
31660;SDS011;18267;52.234;7.444;2023-03-20T11:27:29;5.13;;;1.70;;
31660;SDS011;18267;52.234;7.444;2023-03-20T11:29:57;5.57;;;1.50;;
31660;SDS011;18267;52.234;7.444;2023-03-20T11:32:28;5.72;;;1.77;;
31660;SDS011;18267;52.234;7.444;2023-03-20T11:35:18;4.65;;;1.60;;
31660;SDS011;18267;52.234;7.444;2023-03-20T11:37:48;12.77;;;1.92;;
31660;SDS011;18267;52.234;7.444;2023-03-20T11:40:22;5.13;;;2.08;;
31660;SDS011;18267;52.234;7.444;2023-03-20T11:42:56;4.82;;;1.65;;
31660;SDS011;18267;52.234;7.444;2023-03-20T11:45:33;6.00;;;1.70;;
31660;SDS011;18267;52.234;7.444;2023-03-20T11:48:01;2.70;;;1.58;;
31660;SDS011;18267;52.234;7.444;2023-03-20T11:50:41;3.88;;;1.67;;
31660;SDS011;18267;52.234;7.444;2023-03-20T11:53:51;3.05;;;1.38;;
31660;SDS011;18267;52.234;7.444;2023-03-20T11:56:07;3.15;;;1.38;;
31660;SDS011;18267;52.234;7.444;2023-03-20T11:58:45;6.03;;;1.67;;
31660;SDS011;18267;52.234;7.444;2023-03-20T12:01:39;6.45;;;1.20;;
31660;SDS011;18267;52.234;7.444;2023-03-20T12:04:11;7.43;;;1.45;;
31660;SDS011;18267;52.234;7.444;2023-03-20T12:06:51;5.72;;;1.35;;
31660;SDS011;18267;52.234;7.444;2023-03-20T12:09:30;6.80;;;1.15;;
31660;SDS011;18267;52.234;7.444;2023-03-20T12:12:04;5.03;;;1.58;;
31660;SDS011;18267;52.234;7.444;2023-03-20T12:14:39;5.43;;;1.00;;
31660;SDS011;18267;52.234;7.444;2023-03-20T12:20:03;4.90;;;1.38;;
31660;SDS011;18267;52.234;7.444;2023-03-20T12:22:40;8.65;;;1.85;;
31660;SDS011;18267;52.234;7.444;2023-03-20T12:28:02;6.18;;;1.50;;
31660;SDS011;18267;52.234;7.444;2023-03-20T12:33:52;7.35;;;2.03;;
31660;SDS011;18267;52.234;7.444;2023-03-20T12:36:24;5.65;;;2.03;;
31660;SDS011;18267;52.234;7.444;2023-03-20T12:39:10;6.45;;;1.98;;
31660;SDS011;18267;52.234;7.444;2023-03-20T12:44:28;3.72;;;1.48;;
31660;SDS011;18267;52.234;7.444;2023-03-20T12:50:02;1.88;;;1.25;;
31660;SDS011;18267;52.234;7.444;2023-03-20T13:01:33;3.03;;;1.00;;
31660;SDS011;18267;52.234;7.444;2023-03-20T13:06:59;3.63;;;0.80;;
31660;SDS011;18267;52.234;7.444;2023-03-20T13:15:06;5.53;;;1.45;;
31660;SDS011;18267;52.234;7.444;2023-03-20T13:23:26;3.28;;;1.52;;
31660;SDS011;18267;52.234;7.444;2023-03-20T13:29:12;5.38;;;1.45;;
31660;SDS011;18267;52.234;7.444;2023-03-20T13:35:04;3.97;;;1.90;;
31660;SDS011;18267;52.234;7.444;2023-03-20T13:37:51;2.55;;;1.63;;
31660;SDS011;18267;52.234;7.444;2023-03-20T13:43:03;5.22;;;2.00;;
31660;SDS011;18267;52.234;7.444;2023-03-20T13:45:37;10.02;;;2.88;;
31660;SDS011;18267;52.234;7.444;2023-03-20T13:48:50;4.25;;;2.10;;
31660;SDS011;18267;52.234;7.444;2023-03-20T13:50:59;6.43;;;2.10;;
31660;SDS011;18267;52.234;7.444;2023-03-20T13:59:00;6.93;;;2.40;;
31660;SDS011;18267;52.234;7.444;2023-03-20T14:01:43;7.72;;;2.65;;
31660;SDS011;18267;52.234;7.444;2023-03-20T14:04:18;10.38;;;2.63;;
31660;SDS011;18267;52.234;7.444;2023-03-20T14:09:37;6.82;;;2.60;;
31660;SDS011;18267;52.234;7.444;2023-03-20T14:12:04;3.67;;;2.30;;
31660;SDS011;18267;52.234;7.444;2023-03-20T14:14:38;7.50;;;2.17;;
31660;SDS011;18267;52.234;7.444;2023-03-20T14:17:21;6.50;;;2.45;;
31660;SDS011;18267;52.234;7.444;2023-03-20T14:19:50;4.10;;;2.30;;
31660;SDS011;18267;52.234;7.444;2023-03-20T14:22:19;6.05;;;2.80;;
31660;SDS011;18267;52.234;7.444;2023-03-20T14:27:33;6.78;;;2.88;;
31660;SDS011;18267;52.234;7.444;2023-03-20T14:36:13;3.78;;;2.13;;
31660;SDS011;18267;52.234;7.444;2023-03-20T14:38:54;7.15;;;2.90;;
31660;SDS011;18267;52.234;7.444;2023-03-20T14:47:00;7.18;;;2.45;;
31660;SDS011;18267;52.234;7.444;2023-03-20T14:49:46;9.00;;;2.50;;
31660;SDS011;18267;52.234;7.444;2023-03-20T14:52:34;4.53;;;2.58;;
31660;SDS011;18267;52.234;7.444;2023-03-20T14:57:46;3.95;;;2.13;;
31660;SDS011;18267;52.234;7.444;2023-03-20T15:00:54;12.30;;;2.40;;
31660;SDS011;18267;52.234;7.444;2023-03-20T15:03:10;6.10;;;2.70;;
31660;SDS011;18267;52.234;7.444;2023-03-20T15:05:41;2.72;;;2.17;;
31660;SDS011;18267;52.234;7.444;2023-03-20T15:08:13;4.75;;;1.98;;
31660;SDS011;18267;52.234;7.444;2023-03-20T15:10:55;4.15;;;1.90;;
31660;SDS011;18267;52.234;7.444;2023-03-20T15:13:22;6.82;;;2.08;;
31660;SDS011;18267;52.234;7.444;2023-03-20T15:16:02;8.25;;;1.90;;
31660;SDS011;18267;52.234;7.444;2023-03-20T15:18:40;2.08;;;1.55;;
31660;SDS011;18267;52.234;7.444;2023-03-20T15:21:53;4.45;;;1.88;;
31660;SDS011;18267;52.234;7.444;2023-03-20T15:24:02;4.00;;;1.65;;
31660;SDS011;18267;52.234;7.444;2023-03-20T15:26:28;3.38;;;1.58;;
31660;SDS011;18267;52.234;7.444;2023-03-20T15:29:03;5.82;;;2.00;;
31660;SDS011;18267;52.234;7.444;2023-03-20T15:31:32;6.40;;;1.80;;
31660;SDS011;18267;52.234;7.444;2023-03-20T15:34:00;6.68;;;1.73;;
31660;SDS011;18267;52.234;7.444;2023-03-20T15:36:30;3.15;;;1.80;;
31660;SDS011;18267;52.234;7.444;2023-03-20T15:39:22;4.70;;;1.85;;
31660;SDS011;18267;52.234;7.444;2023-03-20T15:44:23;2.58;;;2.05;;
31660;SDS011;18267;52.234;7.444;2023-03-20T15:46:56;4.55;;;1.90;;
31660;SDS011;18267;52.234;7.444;2023-03-20T15:49:26;14.10;;;2.35;;
31660;SDS011;18267;52.234;7.444;2023-03-20T15:51:54;5.10;;;2.10;;
31660;SDS011;18267;52.234;7.444;2023-03-20T15:54:24;4.40;;;1.92;;
31660;SDS011;18267;52.234;7.444;2023-03-20T15:56:51;8.30;;;2.15;;
31660;SDS011;18267;52.234;7.444;2023-03-20T15:59:19;3.28;;;2.40;;
31660;SDS011;18267;52.234;7.444;2023-03-20T16:01:49;4.35;;;2.00;;
31660;SDS011;18267;52.234;7.444;2023-03-20T16:04:17;7.00;;;1.88;;
31660;SDS011;18267;52.234;7.444;2023-03-20T16:06:53;14.65;;;2.60;;
31660;SDS011;18267;52.234;7.444;2023-03-20T16:09:21;6.22;;;2.67;;
31660;SDS011;18267;52.234;7.444;2023-03-20T16:11:54;3.83;;;2.17;;
31660;SDS011;18267;52.234;7.444;2023-03-20T16:16:52;5.40;;;2.60;;
31660;SDS011;18267;52.234;7.444;2023-03-20T16:19:21;4.00;;;2.53;;
31660;SDS011;18267;52.234;7.444;2023-03-20T16:21:50;8.68;;;3.03;;
31660;SDS011;18267;52.234;7.444;2023-03-20T16:24:37;11.13;;;2.65;;
31660;SDS011;18267;52.234;7.444;2023-03-20T16:27:05;11.20;;;2.90;;
31660;SDS011;18267;52.234;7.444;2023-03-20T16:29:34;8.07;;;2.85;;
31660;SDS011;18267;52.234;7.444;2023-03-20T16:32:11;3.80;;;2.10;;
31660;SDS011;18267;52.234;7.444;2023-03-20T16:34:50;9.00;;;2.55;;
31660;SDS011;18267;52.234;7.444;2023-03-20T16:37:22;10.85;;;3.05;;
31660;SDS011;18267;52.234;7.444;2023-03-20T16:42:37;7.78;;;2.35;;
31660;SDS011;18267;52.234;7.444;2023-03-20T16:45:04;10.43;;;3.13;;
31660;SDS011;18267;52.234;7.444;2023-03-20T16:47:37;6.75;;;3.08;;
31660;SDS011;18267;52.234;7.444;2023-03-20T16:52:29;10.82;;;2.95;;
31660;SDS011;18267;52.234;7.444;2023-03-20T16:55:01;10.90;;;3.25;;
31660;SDS011;18267;52.234;7.444;2023-03-20T16:57:32;10.82;;;2.67;;
31660;SDS011;18267;52.234;7.444;2023-03-20T17:00:04;6.32;;;2.92;;
31660;SDS011;18267;52.234;7.444;2023-03-20T17:02:36;11.18;;;2.80;;
31660;SDS011;18267;52.234;7.444;2023-03-20T17:05:05;10.40;;;3.72;;
31660;SDS011;18267;52.234;7.444;2023-03-20T17:07:36;11.38;;;2.88;;
31660;SDS011;18267;52.234;7.444;2023-03-20T17:12:40;8.93;;;2.60;;
31660;SDS011;18267;52.234;7.444;2023-03-20T17:15:08;7.18;;;2.90;;
31660;SDS011;18267;52.234;7.444;2023-03-20T17:17:38;9.13;;;2.95;;
31660;SDS011;18267;52.234;7.444;2023-03-20T17:20:05;6.15;;;2.72;;
31660;SDS011;18267;52.234;7.444;2023-03-20T17:22:31;4.88;;;3.22;;
31660;SDS011;18267;52.234;7.444;2023-03-20T17:24:57;7.57;;;2.63;;
31660;SDS011;18267;52.234;7.444;2023-03-20T17:27:23;7.20;;;3.33;;
31660;SDS011;18267;52.234;7.444;2023-03-20T17:29:49;5.43;;;2.85;;